sensor_id;sensor_type;location;lat;lon;timestamp;pressure;altitude;pressure_sealevel;temperature;humidity
13478;BME280;12598;62.382;17.344;2023-02-20T00:00:00;99996.50;;;16.51;20.14
13478;BME280;12598;62.382;17.344;2023-02-20T00:01:03;100002.81;;;16.50;20.36
13478;BME280;12598;62.382;17.344;2023-02-20T00:02:05;100005.50;;;16.50;20.03
13478;BME280;12598;62.382;17.344;2023-02-20T00:03:07;99999.31;;;16.49;20.36
13478;BME280;12598;62.382;17.344;2023-02-20T00:04:09;99995.28;;;16.45;20.23
13478;BME280;12598;62.382;17.344;2023-02-20T00:05:12;99995.28;;;16.45;20.52
13478;BME280;12598;62.382;17.344;2023-02-20T00:06:14;100001.28;;;16.47;20.21
13478;BME280;12598;62.382;17.344;2023-02-20T00:07:16;99999.63;;;16.46;20.53
13478;BME280;12598;62.382;17.344;2023-02-20T00:08:18;99977.91;;;16.41;20.11
13478;BME280;12598;62.382;17.344;2023-02-20T00:09:20;99982.78;;;16.46;20.27
13478;BME280;12598;62.382;17.344;2023-02-20T00:10:22;99983.78;;;16.45;20.23
13478;BME280;12598;62.382;17.344;2023-02-20T00:11:24;99980.25;;;16.44;20.18
13478;BME280;12598;62.382;17.344;2023-02-20T00:12:26;99988.25;;;16.44;20.35
13478;BME280;12598;62.382;17.344;2023-02-20T00:13:28;100002.59;;;16.43;20.44
13478;BME280;12598;62.382;17.344;2023-02-20T00:14:30;99999.94;;;16.43;20.38
13478;BME280;12598;62.382;17.344;2023-02-20T00:15:32;99997.25;;;16.43;20.12
13478;BME280;12598;62.382;17.344;2023-02-20T00:16:34;99993.91;;;16.41;20.21
13478;BME280;12598;62.382;17.344;2023-02-20T00:17:36;99986.91;;;16.40;20.49
13478;BME280;12598;62.382;17.344;2023-02-20T00:18:38;99992.22;;;16.40;20.30
13478;BME280;12598;62.382;17.344;2023-02-20T00:19:40;99994.91;;;16.40;20.56
13478;BME280;12598;62.382;17.344;2023-02-20T00:20:42;99989.56;;;16.40;20.32
13478;BME280;12598;62.382;17.344;2023-02-20T00:21:45;99977.41;;;16.38;20.07
13478;BME280;12598;62.382;17.344;2023-02-20T00:22:48;99974.88;;;16.36;20.26
13478;BME280;12598;62.382;17.344;2023-02-20T00:23:50;99976.41;;;16.39;20.25
13478;BME280;12598;62.382;17.344;2023-02-20T00:24:52;99975.53;;;16.38;20.36
13478;BME280;12598;62.382;17.344;2023-02-20T00:25:54;99972.06;;;16.38;20.24
13478;BME280;12598;62.382;17.344;2023-02-20T00:26:56;99960.53;;;16.37;20.24
13478;BME280;12598;62.382;17.344;2023-02-20T00:27:58;99958.47;;;16.31;20.41
13478;BME280;12598;62.382;17.344;2023-02-20T00:29:00;99958.84;;;16.36;20.34
13478;BME280;12598;62.382;17.344;2023-02-20T00:30:03;99930.06;;;16.23;20.41
13478;BME280;12598;62.382;17.344;2023-02-20T00:31:06;99949.31;;;16.34;20.31
13478;BME280;12598;62.382;17.344;2023-02-20T00:32:10;99952.66;;;16.36;20.33
13478;BME280;12598;62.382;17.344;2023-02-20T00:33:12;99935.00;;;16.35;20.22
13478;BME280;12598;62.382;17.344;2023-02-20T00:34:14;99926.91;;;16.27;20.56
13478;BME280;12598;62.382;17.344;2023-02-20T00:35:19;99940.31;;;16.35;20.58
13478;BME280;12598;62.382;17.344;2023-02-20T00:36:21;99935.59;;;16.29;20.63
13478;BME280;12598;62.382;17.344;2023-02-20T00:37:23;99938.13;;;16.30;20.35
13478;BME280;12598;62.382;17.344;2023-02-20T00:38:25;99931.78;;;16.31;20.11
13478;BME280;12598;62.382;17.344;2023-02-20T00:39:27;99935.28;;;16.32;20.33
13478;BME280;12598;62.382;17.344;2023-02-20T00:40:29;99926.59;;;16.30;20.22
13478;BME280;12598;62.382;17.344;2023-02-20T00:41:31;99919.06;;;16.26;20.53
13478;BME280;12598;62.382;17.344;2023-02-20T00:42:33;99918.03;;;16.19;20.34
13478;BME280;12598;62.382;17.344;2023-02-20T00:43:35;99932.41;;;16.26;20.33
13478;BME280;12598;62.382;17.344;2023-02-20T00:44:37;99941.78;;;16.29;20.21
13478;BME280;12598;62.382;17.344;2023-02-20T00:45:40;99928.59;;;16.28;20.30
13478;BME280;12598;62.382;17.344;2023-02-20T00:46:42;99930.25;;;16.29;20.22
13478;BME280;12598;62.382;17.344;2023-02-20T00:47:46;99925.09;;;16.27;20.60
13478;BME280;12598;62.382;17.344;2023-02-20T00:48:48;99924.09;;;16.28;20.55
13478;BME280;12598;62.382;17.344;2023-02-20T00:50:12;99928.25;;;16.31;20.18
13478;BME280;12598;62.382;17.344;2023-02-20T00:51:14;99916.78;;;16.30;20.10
13478;BME280;12598;62.382;17.344;2023-02-20T00:52:16;99924.91;;;16.29;20.30
13478;BME280;12598;62.382;17.344;2023-02-20T00:53:17;99915.41;;;16.27;20.49
13478;BME280;12598;62.382;17.344;2023-02-20T00:54:19;99928.75;;;16.27;20.41
13478;BME280;12598;62.382;17.344;2023-02-20T00:55:21;99924.25;;;16.27;20.66
13478;BME280;12598;62.382;17.344;2023-02-20T00:56:23;99918.41;;;16.24;20.57
13478;BME280;12598;62.382;17.344;2023-02-20T00:57:25;99921.06;;;16.24;20.21
13478;BME280;12598;62.382;17.344;2023-02-20T00:58:28;99916.56;;;16.24;20.30
13478;BME280;12598;62.382;17.344;2023-02-20T00:59:30;99917.41;;;16.25;20.20
13478;BME280;12598;62.382;17.344;2023-02-20T01:00:32;99916.72;;;16.23;20.46
13478;BME280;12598;62.382;17.344;2023-02-20T01:01:34;99915.06;;;16.22;20.18
13478;BME280;12598;62.382;17.344;2023-02-20T01:02:36;99913.19;;;16.22;20.26
13478;BME280;12598;62.382;17.344;2023-02-20T01:03:38;99910.03;;;16.19;20.30
13478;BME280;12598;62.382;17.344;2023-02-20T01:04:40;99912.38;;;16.22;20.39
13478;BME280;12598;62.382;17.344;2023-02-20T01:05:43;99904.38;;;16.22;20.17
13478;BME280;12598;62.382;17.344;2023-02-20T01:06:45;99905.38;;;16.21;20.78
13478;BME280;12598;62.382;17.344;2023-02-20T01:07:47;99880.25;;;16.06;20.56
13478;BME280;12598;62.382;17.344;2023-02-20T01:08:50;99901.03;;;16.20;20.52
13478;BME280;12598;62.382;17.344;2023-02-20T01:09:54;99906.38;;;16.20;20.74
13478;BME280;12598;62.382;17.344;2023-02-20T01:10:56;99898.38;;;16.20;20.57
13478;BME280;12598;62.382;17.344;2023-02-20T01:11:58;99889.50;;;16.19;20.32
13478;BME280;12598;62.382;17.344;2023-02-20T01:12:59;99886.03;;;16.19;20.53
13478;BME280;12598;62.382;17.344;2023-02-20T01:14:01;99872.63;;;16.11;20.27
13478;BME280;12598;62.382;17.344;2023-02-20T01:15:06;99875.44;;;16.09;20.19
13478;BME280;12598;62.382;17.344;2023-02-20T01:16:08;99883.50;;;16.17;20.46
13478;BME280;12598;62.382;17.344;2023-02-20T01:17:11;99884.50;;;16.16;20.47
13478;BME280;12598;62.382;17.344;2023-02-20T01:18:13;99882.69;;;16.17;20.26
13478;BME280;12598;62.382;17.344;2023-02-20T01:19:15;99873.97;;;16.15;20.58
13478;BME280;12598;62.382;17.344;2023-02-20T01:20:17;99870.31;;;16.16;20.03
13478;BME280;12598;62.382;17.344;2023-02-20T01:21:20;99868.63;;;16.15;20.31
13478;BME280;12598;62.382;17.344;2023-02-20T01:22:22;99861.50;;;16.15;20.48
13478;BME280;12598;62.382;17.344;2023-02-20T01:23:24;99851.81;;;16.14;20.68
13478;BME280;12598;62.382;17.344;2023-02-20T01:24:26;99843.81;;;16.14;20.50
13478;BME280;12598;62.382;17.344;2023-02-20T01:25:28;99841.28;;;16.13;20.59
13478;BME280;12598;62.382;17.344;2023-02-20T01:26:31;99828.97;;;16.12;20.52
13478;BME280;12598;62.382;17.344;2023-02-20T01:27:33;99840.31;;;16.14;20.45
13478;BME280;12598;62.382;17.344;2023-02-20T01:28:35;99835.97;;;16.13;20.30
13478;BME280;12598;62.382;17.344;2023-02-20T01:29:37;99837.63;;;16.14;20.29
13478;BME280;12598;62.382;17.344;2023-02-20T01:30:39;99838.63;;;16.13;20.60
13478;BME280;12598;62.382;17.344;2023-02-20T01:31:47;99815.75;;;16.02;20.46
13478;BME280;12598;62.382;17.344;2023-02-20T01:32:49;99821.63;;;16.14;20.60
13478;BME280;12598;62.382;17.344;2023-02-20T01:33:51;99819.97;;;16.13;20.37
13478;BME280;12598;62.382;17.344;2023-02-20T01:34:53;99810.94;;;16.06;20.40
13478;BME280;12598;62.382;17.344;2023-02-20T01:35:55;99810.59;;;16.09;20.27
13478;BME280;12598;62.382;17.344;2023-02-20T01:36:57;99816.63;;;16.11;20.52
13478;BME280;12598;62.382;17.344;2023-02-20T01:37:59;99807.78;;;16.10;20.45
13478;BME280;12598;62.382;17.344;2023-02-20T01:39:05;99800.63;;;16.11;20.57
13478;BME280;12598;62.382;17.344;2023-02-20T01:40:14;99798.94;;;16.10;20.36
13478;BME280;12598;62.382;17.344;2023-02-20T01:41:17;99791.81;;;16.10;20.54
13478;BME280;12598;62.382;17.344;2023-02-20T01:42:23;99785.63;;;16.10;20.68
13478;BME280;12598;62.382;17.344;2023-02-20T01:43:28;99787.28;;;16.11;20.31
13478;BME280;12598;62.382;17.344;2023-02-20T01:44:34;99775.44;;;16.05;20.25
13478;BME280;12598;62.382;17.344;2023-02-20T01:45:37;99775.94;;;16.09;20.34
13478;BME280;12598;62.382;17.344;2023-02-20T01:46:43;99778.59;;;16.09;20.88
13478;BME280;12598;62.382;17.344;2023-02-20T01:47:52;99769.78;;;16.08;20.59
13478;BME280;12598;62.382;17.344;2023-02-20T01:49:01;99755.91;;;15.97;20.27
13478;BME280;12598;62.382;17.344;2023-02-20T01:50:05;99775.94;;;16.09;20.26
13478;BME280;12598;62.382;17.344;2023-02-20T01:51:09;99769.78;;;16.08;20.33
13478;BME280;12598;62.382;17.344;2023-02-20T01:52:19;99756.56;;;15.99;20.22
13478;BME280;12598;62.382;17.344;2023-02-20T01:53:24;99757.47;;;16.07;20.30
13478;BME280;12598;62.382;17.344;2023-02-20T01:54:28;99754.13;;;16.05;20.15
13478;BME280;12598;62.382;17.344;2023-02-20T01:55:58;99745.63;;;16.10;20.35
13478;BME280;12598;62.382;17.344;2023-02-20T01:57:03;99736.81;;;16.09;20.08
13478;BME280;12598;62.382;17.344;2023-02-20T01:58:11;99748.59;;;16.07;20.36
13478;BME280;12598;62.382;17.344;2023-02-20T01:59:16;99746.94;;;16.06;20.11
13478;BME280;12598;62.382;17.344;2023-02-20T02:00:20;99746.25;;;16.04;20.47
13478;BME280;12598;62.382;17.344;2023-02-20T02:01:24;99747.25;;;16.03;20.38
13478;BME280;12598;62.382;17.344;2023-02-20T02:02:29;99739.56;;;16.00;20.60
13478;BME280;12598;62.382;17.344;2023-02-20T02:03:36;99742.25;;;16.00;20.51
13478;BME280;12598;62.382;17.344;2023-02-20T02:04:42;99732.91;;;15.96;20.37
13478;BME280;12598;62.382;17.344;2023-02-20T02:05:47;99739.56;;;16.00;20.18
13478;BME280;12598;62.382;17.344;2023-02-20T02:06:51;99737.75;;;16.00;20.19
13478;BME280;12598;62.382;17.344;2023-02-20T02:07:54;99740.56;;;15.99;20.17
13478;BME280;12598;62.382;17.344;2023-02-20T02:08:58;99738.91;;;15.98;20.69
13478;BME280;12598;62.382;17.344;2023-02-20T02:10:07;99734.41;;;15.98;20.56
13478;BME280;12598;62.382;17.344;2023-02-20T02:11:18;99739.56;;;16.00;20.62
13478;BME280;12598;62.382;17.344;2023-02-20T02:12:21;99722.53;;;15.93;20.23
13478;BME280;12598;62.382;17.344;2023-02-20T02:13:23;99727.41;;;15.97;20.50
13478;BME280;12598;62.382;17.344;2023-02-20T02:14:28;99682.50;;;15.77;20.65
13478;BME280;12598;62.382;17.344;2023-02-20T02:15:30;99716.38;;;15.92;20.49
13478;BME280;12598;62.382;17.344;2023-02-20T02:24:26;99693.94;;;16.03;20.26
13478;BME280;12598;62.382;17.344;2023-02-20T02:30:00;99684.94;;;16.04;20.53
13478;BME280;12598;62.382;17.344;2023-02-20T02:31:26;99669.78;;;16.04;20.33
13478;BME280;12598;62.382;17.344;2023-02-20T02:36:37;99669.59;;;15.98;20.62
13478;BME280;12598;62.382;17.344;2023-02-20T02:37:49;99663.59;;;15.96;20.45
13478;BME280;12598;62.382;17.344;2023-02-20T02:39:16;99658.94;;;15.98;20.41
13478;BME280;12598;62.382;17.344;2023-02-20T02:40:40;99654.59;;;15.97;20.33
13478;BME280;12598;62.382;17.344;2023-02-20T02:42:28;99661.25;;;16.01;20.69
13478;BME280;12598;62.382;17.344;2023-02-20T02:43:36;99652.44;;;16.00;20.30
13478;BME280;12598;62.382;17.344;2023-02-20T02:44:43;99646.59;;;15.97;20.63
13478;BME280;12598;62.382;17.344;2023-02-20T02:45:59;99641.72;;;15.92;20.47
13478;BME280;12598;62.382;17.344;2023-02-20T02:47:10;99647.06;;;15.92;20.36
13478;BME280;12598;62.382;17.344;2023-02-20T02:48:27;99643.56;;;15.92;20.39
13478;BME280;12598;62.382;17.344;2023-02-20T02:49:53;99635.25;;;15.95;20.58
13478;BME280;12598;62.382;17.344;2023-02-20T02:51:06;99633.72;;;15.92;20.69
13478;BME280;12598;62.382;17.344;2023-02-20T02:52:11;99601.34;;;15.71;20.41
13478;BME280;12598;62.382;17.344;2023-02-20T02:53:14;99632.38;;;15.88;20.21
13478;BME280;12598;62.382;17.344;2023-02-20T02:54:18;99631.91;;;15.85;20.30
13478;BME280;12598;62.382;17.344;2023-02-20T02:55:28;99632.72;;;15.85;20.81
13478;BME280;12598;62.382;17.344;2023-02-20T02:56:39;99631.91;;;15.85;20.34
13478;BME280;12598;62.382;17.344;2023-02-20T02:57:41;99602.88;;;15.74;20.43
13478;BME280;12598;62.382;17.344;2023-02-20T02:58:43;99602.03;;;15.73;20.65
13478;BME280;12598;62.382;17.344;2023-02-20T02:59:46;99616.22;;;15.82;20.42
13478;BME280;12598;62.382;17.344;2023-02-20T03:00:55;99601.16;;;15.73;20.47
13478;BME280;12598;62.382;17.344;2023-02-20T03:02:02;99604.03;;;15.79;20.57
13478;BME280;12598;62.382;17.344;2023-02-20T03:04:12;99602.38;;;15.78;20.42
13478;BME280;12598;62.382;17.344;2023-02-20T03:05:18;99606.38;;;15.82;20.39
13478;BME280;12598;62.382;17.344;2023-02-20T03:06:24;99619.56;;;15.84;20.57
13478;BME280;12598;62.382;17.344;2023-02-20T03:07:32;99608.91;;;15.84;20.55
13478;BME280;12598;62.382;17.344;2023-02-20T03:10:13;99578.59;;;15.85;20.57
13478;BME280;12598;62.382;17.344;2023-02-20T03:11:23;99581.94;;;15.87;20.48
13478;BME280;12598;62.382;17.344;2023-02-20T03:12:26;99579.25;;;15.87;20.16
13478;BME280;12598;62.382;17.344;2023-02-20T03:13:41;99575.25;;;15.83;20.50
13478;BME280;12598;62.382;17.344;2023-02-20T03:15:09;99567.94;;;15.85;20.57
13478;BME280;12598;62.382;17.344;2023-02-20T03:19:00;99559.75;;;15.86;20.77
13478;BME280;12598;62.382;17.344;2023-02-20T03:20:15;99555.28;;;15.87;20.31
13478;BME280;12598;62.382;17.344;2023-02-20T03:21:19;99542.28;;;15.84;20.65
13478;BME280;12598;62.382;17.344;2023-02-20T03:22:36;99537.94;;;15.83;20.40
13478;BME280;12598;62.382;17.344;2023-02-20T03:23:50;99530.63;;;15.85;20.48
13478;BME280;12598;62.382;17.344;2023-02-20T03:25:03;99526.28;;;15.84;20.44
13478;BME280;12598;62.382;17.344;2023-02-20T03:26:18;99525.28;;;15.85;20.54
13478;BME280;12598;62.382;17.344;2023-02-20T03:27:29;99511.94;;;15.77;20.68
13478;BME280;12598;62.382;17.344;2023-02-20T03:28:44;99516.44;;;15.84;20.34
13478;BME280;12598;62.382;17.344;2023-02-20T03:29:48;99505.44;;;15.79;20.49
13478;BME280;12598;62.382;17.344;2023-02-20T03:31:17;99507.28;;;15.87;20.65
13478;BME280;12598;62.382;17.344;2023-02-20T03:32:25;99504.28;;;15.82;20.63
13478;BME280;12598;62.382;17.344;2023-02-20T03:33:55;99507.28;;;15.87;20.35
13478;BME280;12598;62.382;17.344;2023-02-20T03:35:19;99496.47;;;15.88;20.29
13478;BME280;12598;62.382;17.344;2023-02-20T03:37:09;99494.31;;;15.92;20.29
13478;BME280;12598;62.382;17.344;2023-02-20T03:38:36;99488.31;;;15.90;20.32
13478;BME280;12598;62.382;17.344;2023-02-20T03:40:01;99482.31;;;15.88;20.36
13478;BME280;12598;62.382;17.344;2023-02-20T03:41:26;99477.97;;;15.87;20.60
13478;BME280;12598;62.382;17.344;2023-02-20T03:42:52;99465.66;;;15.86;20.58
13478;BME280;12598;62.382;17.344;2023-02-20T03:44:17;99458.66;;;15.85;20.68
13478;BME280;12598;62.382;17.344;2023-02-20T03:45:21;99465.31;;;15.81;20.77
13478;BME280;12598;62.382;17.344;2023-02-20T03:46:26;99456.66;;;15.79;20.87
13478;BME280;12598;62.382;17.344;2023-02-20T03:47:33;99453.47;;;15.75;20.67
13478;BME280;12598;62.382;17.344;2023-02-20T03:49:43;99458.97;;;15.74;20.79
13478;BME280;12598;62.382;17.344;2023-02-20T03:50:49;99442.16;;;15.73;20.56
13478;BME280;12598;62.382;17.344;2023-02-20T03:52:19;99446.16;;;15.77;20.72
13478;BME280;12598;62.382;17.344;2023-02-20T03:53:22;99440.16;;;15.75;20.55
13478;BME280;12598;62.382;17.344;2023-02-20T03:54:26;99441.28;;;15.73;20.65
13478;BME280;12598;62.382;17.344;2023-02-20T03:55:28;99438.63;;;15.73;20.71
13478;BME280;12598;62.382;17.344;2023-02-20T03:56:41;99426.16;;;15.65;20.68
13478;BME280;12598;62.382;17.344;2023-02-20T03:57:49;99435.97;;;15.73;20.74
13478;BME280;12598;62.382;17.344;2023-02-20T03:59:03;99431.81;;;15.70;20.68
13478;BME280;12598;62.382;17.344;2023-02-20T04:00:14;99434.00;;;15.75;20.67
13478;BME280;12598;62.382;17.344;2023-02-20T04:01:25;99431.34;;;15.75;20.46
13478;BME280;12598;62.382;17.344;2023-02-20T04:02:41;99416.81;;;15.69;20.54
13478;BME280;12598;62.382;17.344;2023-02-20T04:03:46;99411.31;;;15.63;20.62
13478;BME280;12598;62.382;17.344;2023-02-20T04:04:52;99428.97;;;15.72;20.47
13478;BME280;12598;62.382;17.344;2023-02-20T04:05:57;99420.97;;;15.72;20.51
13478;BME280;12598;62.382;17.344;2023-02-20T04:07:11;99395.66;;;15.60;20.99
13478;BME280;12598;62.382;17.344;2023-02-20T04:08:20;99399.31;;;15.67;20.74
13478;BME280;12598;62.382;17.344;2023-02-20T04:09:29;99397.34;;;15.69;20.62
13478;BME280;12598;62.382;17.344;2023-02-20T04:10:38;99390.00;;;15.71;21.04
13478;BME280;12598;62.382;17.344;2023-02-20T04:11:49;99392.66;;;15.71;20.76
13478;BME280;12598;62.382;17.344;2023-02-20T04:12:54;99373.88;;;15.64;21.02
13478;BME280;12598;62.382;17.344;2023-02-20T04:13:57;99376.88;;;15.69;20.73
13478;BME280;12598;62.382;17.344;2023-02-20T04:15:01;99383.34;;;15.67;20.91
13478;BME280;12598;62.382;17.344;2023-02-20T04:16:06;99369.34;;;15.65;20.92
13478;BME280;12598;62.382;17.344;2023-02-20T04:17:14;99371.00;;;15.66;20.72
13478;BME280;12598;62.382;17.344;2023-02-20T04:18:19;99377.00;;;15.68;20.65
13478;BME280;12598;62.382;17.344;2023-02-20T04:19:23;99367.34;;;15.67;20.80
13478;BME280;12598;62.382;17.344;2023-02-20T04:20:25;99359.88;;;15.62;20.75
13478;BME280;12598;62.382;17.344;2023-02-20T04:21:41;99359.22;;;15.68;20.92
13478;BME280;12598;62.382;17.344;2023-02-20T04:22:48;99347.22;;;15.64;20.95
13478;BME280;12598;62.382;17.344;2023-02-20T04:24:01;99344.03;;;15.69;21.25
13478;BME280;12598;62.382;17.344;2023-02-20T04:26:23;99333.03;;;15.72;21.17
13478;BME280;12598;62.382;17.344;2023-02-20T04:27:25;99326.25;;;15.69;21.11
13478;BME280;12598;62.382;17.344;2023-02-20T04:28:30;99325.38;;;15.69;20.93
13478;BME280;12598;62.382;17.344;2023-02-20T04:29:36;99321.06;;;15.68;20.68
13478;BME280;12598;62.382;17.344;2023-02-20T04:30:37;99298.28;;;15.57;20.94
13478;BME280;12598;62.382;17.344;2023-02-20T04:31:40;99312.41;;;15.66;20.79
13478;BME280;12598;62.382;17.344;2023-02-20T04:32:42;99308.94;;;15.65;20.94
13478;BME280;12598;62.382;17.344;2023-02-20T04:33:46;99290.09;;;15.59;20.86
13478;BME280;12598;62.382;17.344;2023-02-20T04:34:53;99291.94;;;15.66;20.79
13478;BME280;12598;62.382;17.344;2023-02-20T04:35:55;99285.75;;;15.66;20.84
13478;BME280;12598;62.382;17.344;2023-02-20T04:37:12;99283.75;;;15.68;21.25
13478;BME280;12598;62.382;17.344;2023-02-20T04:38:15;99281.75;;;15.70;20.75
13478;BME280;12598;62.382;17.344;2023-02-20T04:39:17;99278.44;;;15.68;21.11
13478;BME280;12598;62.382;17.344;2023-02-20T04:40:21;99259.97;;;15.58;21.10
13478;BME280;12598;62.382;17.344;2023-02-20T04:41:23;99277.63;;;15.67;20.87
13478;BME280;12598;62.382;17.344;2023-02-20T04:42:26;99269.78;;;15.66;21.01
13478;BME280;12598;62.382;17.344;2023-02-20T04:43:30;99259.47;;;15.63;20.59
13478;BME280;12598;62.382;17.344;2023-02-20T04:44:32;99265.44;;;15.65;20.73
13478;BME280;12598;62.382;17.344;2023-02-20T04:45:40;99267.78;;;15.68;20.85
13478;BME280;12598;62.382;17.344;2023-02-20T04:46:42;99262.78;;;15.65;20.90
13478;BME280;12598;62.382;17.344;2023-02-20T04:47:45;99260.97;;;15.65;20.92
13478;BME280;12598;62.382;17.344;2023-02-20T04:48:47;99261.78;;;15.66;21.10
13478;BME280;12598;62.382;17.344;2023-02-20T04:49:49;99235.50;;;15.55;20.85
13478;BME280;12598;62.382;17.344;2023-02-20T04:50:55;99251.13;;;15.66;20.86
13478;BME280;12598;62.382;17.344;2023-02-20T04:51:58;99252.13;;;15.65;21.05
13478;BME280;12598;62.382;17.344;2023-02-20T04:53:00;99244.13;;;15.65;20.97
13478;BME280;12598;62.382;17.344;2023-02-20T04:54:02;99241.47;;;15.65;20.93
13478;BME280;12598;62.382;17.344;2023-02-20T04:55:05;99224.84;;;15.55;20.92
13478;BME280;12598;62.382;17.344;2023-02-20T04:56:07;99246.81;;;15.65;21.25
13478;BME280;12598;62.382;17.344;2023-02-20T04:57:12;99241.47;;;15.65;20.97
13478;BME280;12598;62.382;17.344;2023-02-20T04:58:14;99239.81;;;15.64;20.94
13478;BME280;12598;62.382;17.344;2023-02-20T04:59:26;99242.97;;;15.67;21.13
13478;BME280;12598;62.382;17.344;2023-02-20T05:00:27;99233.47;;;15.65;21.01
13478;BME280;12598;62.382;17.344;2023-02-20T05:01:29;99236.16;;;15.65;20.90
13478;BME280;12598;62.382;17.344;2023-02-20T05:02:31;99229.16;;;15.64;21.12
13478;BME280;12598;62.382;17.344;2023-02-20T05:03:33;99231.00;;;15.63;21.12
13478;BME280;12598;62.382;17.344;2023-02-20T05:04:36;99224.81;;;15.63;21.34
13478;BME280;12598;62.382;17.344;2023-02-20T05:05:37;99225.84;;;15.62;21.28
13478;BME280;12598;62.382;17.344;2023-02-20T05:06:51;99215.19;;;15.62;21.05
13478;BME280;12598;62.382;17.344;2023-02-20T05:08:05;99208.34;;;15.67;20.92
13478;BME280;12598;62.382;17.344;2023-02-20T05:09:07;99199.03;;;15.63;20.85
13478;BME280;12598;62.382;17.344;2023-02-20T05:10:16;99200.69;;;15.64;21.04
13478;BME280;12598;62.382;17.344;2023-02-20T05:11:19;99203.19;;;15.66;21.05
13478;BME280;12598;62.382;17.344;2023-02-20T05:12:21;99197.19;;;15.64;20.74
13478;BME280;12598;62.382;17.344;2023-02-20T05:13:23;99194.72;;;15.62;21.15
13478;BME280;12598;62.382;17.344;2023-02-20T05:14:24;99183.22;;;15.62;20.84
13478;BME280;12598;62.382;17.344;2023-02-20T05:15:27;99181.53;;;15.61;20.85
13478;BME280;12598;62.382;17.344;2023-02-20T05:16:30;99182.38;;;15.61;21.07
13478;BME280;12598;62.382;17.344;2023-02-20T05:17:31;99184.22;;;15.61;21.27
13478;BME280;12598;62.382;17.344;2023-02-20T05:18:34;99165.44;;;15.54;21.10
13478;BME280;12598;62.382;17.344;2023-02-20T05:19:36;99172.22;;;15.57;21.09
13478;BME280;12598;62.382;17.344;2023-02-20T05:20:38;99164.94;;;15.51;20.98
13478;BME280;12598;62.382;17.344;2023-02-20T05:21:58;99173.88;;;15.66;20.79
13478;BME280;12598;62.382;17.344;2023-02-20T05:23:18;99155.88;;;15.68;21.23
13478;BME280;12598;62.382;17.344;2023-02-20T05:24:21;99166.88;;;15.65;21.01
13478;BME280;12598;62.382;17.344;2023-02-20T05:25:23;99151.25;;;15.62;21.05
13478;BME280;12598;62.382;17.344;2023-02-20T05:26:25;99157.41;;;15.62;21.00
13478;BME280;12598;62.382;17.344;2023-02-20T05:27:27;99134.47;;;15.45;21.19
13478;BME280;12598;62.382;17.344;2023-02-20T05:28:29;99154.91;;;15.61;21.29
13478;BME280;12598;62.382;17.344;2023-02-20T05:29:31;99153.25;;;15.60;20.98
13478;BME280;12598;62.382;17.344;2023-02-20T05:30:32;99137.13;;;15.53;20.80
13478;BME280;12598;62.382;17.344;2023-02-20T05:31:35;99137.28;;;15.52;20.97
13478;BME280;12598;62.382;17.344;2023-02-20T05:32:37;99147.09;;;15.59;21.00
13478;BME280;12598;62.382;17.344;2023-02-20T05:33:38;99137.94;;;15.54;21.05
13478;BME280;12598;62.382;17.344;2023-02-20T05:34:41;99130.16;;;15.52;21.08
13478;BME280;12598;62.382;17.344;2023-02-20T05:35:43;99138.94;;;15.61;20.77
13478;BME280;12598;62.382;17.344;2023-02-20T05:36:45;99130.47;;;15.57;21.06
13478;BME280;12598;62.382;17.344;2023-02-20T05:37:47;99125.78;;;15.59;20.89
13478;BME280;12598;62.382;17.344;2023-02-20T05:38:49;99118.97;;;15.57;21.15
13478;BME280;12598;62.382;17.344;2023-02-20T05:39:51;99125.78;;;15.59;21.23
13478;BME280;12598;62.382;17.344;2023-02-20T05:40:53;99121.47;;;15.58;21.09
13478;BME280;12598;62.382;17.344;2023-02-20T05:41:55;99119.63;;;15.59;20.99
13478;BME280;12598;62.382;17.344;2023-02-20T05:42:57;99122.13;;;15.60;21.08
13478;BME280;12598;62.382;17.344;2023-02-20T05:43:59;99109.31;;;15.56;21.16
13478;BME280;12598;62.382;17.344;2023-02-20T05:45:01;99119.47;;;15.60;20.86
13478;BME280;12598;62.382;17.344;2023-02-20T05:46:04;99114.13;;;15.60;20.69
13478;BME280;12598;62.382;17.344;2023-02-20T05:47:06;99109.97;;;15.58;21.18
13478;BME280;12598;62.382;17.344;2023-02-20T05:48:11;99101.00;;;15.51;21.19
13478;BME280;12598;62.382;17.344;2023-02-20T05:49:13;99112.28;;;15.61;21.06
13478;BME280;12598;62.382;17.344;2023-02-20T05:50:15;99113.13;;;15.61;21.14
13478;BME280;12598;62.382;17.344;2023-02-20T05:51:25;99101.63;;;15.61;20.90
13478;BME280;12598;62.382;17.344;2023-02-20T05:52:27;99098.81;;;15.62;21.00
13478;BME280;12598;62.382;17.344;2023-02-20T05:53:30;99089.50;;;15.58;21.18
13478;BME280;12598;62.382;17.344;2023-02-20T05:54:33;99100.63;;;15.62;21.00
13478;BME280;12598;62.382;17.344;2023-02-20T05:55:34;99080.19;;;15.54;21.11
13478;BME280;12598;62.382;17.344;2023-02-20T05:56:41;99077.84;;;15.51;21.23
13478;BME280;12598;62.382;17.344;2023-02-20T05:57:42;99089.97;;;15.62;21.03
13478;BME280;12598;62.382;17.344;2023-02-20T05:58:45;99081.97;;;15.62;21.18
13478;BME280;12598;62.382;17.344;2023-02-20T05:59:47;99080.31;;;15.61;20.89
13478;BME280;12598;62.382;17.344;2023-02-20T06:00:49;99077.84;;;15.59;21.04
13478;BME280;12598;62.382;17.344;2023-02-20T06:01:56;99078.66;;;15.60;20.92
13478;BME280;12598;62.382;17.344;2023-02-20T06:02:58;99051.41;;;15.50;21.16
13478;BME280;12598;62.382;17.344;2023-02-20T06:04:00;99076.84;;;15.60;20.96
13478;BME280;12598;62.382;17.344;2023-02-20T06:05:03;99075.00;;;15.61;20.78
13478;BME280;12598;62.382;17.344;2023-02-20T06:06:06;99068.66;;;15.62;21.07
13478;BME280;12598;62.382;17.344;2023-02-20T06:07:08;99068.34;;;15.57;21.17
13478;BME280;12598;62.382;17.344;2023-02-20T06:08:13;99056.38;;;15.53;20.60